Time;durP1;ratioP1;P1;durP2;ratioP2;P2;SDS_P1;SDS_P2;PMS_P1;PMS_P2;Temp;Humidity;BMP_temperature;BMP_pressure;BME280_temperature;BME280_humidity;BME280_pressure;Samples;Min_cycle;Max_cycle;Signal;HPM_P1;HPM_P2
2023/04/24 00:00:14;;;;;;;5.47;1.50;;;;;;;19.48;58.01;99267.53;5049752;28;20180;-61
2023/04/24 00:02:46;;;;;;;6.23;1.70;;;;;;;19.45;57.95;99272.03;5024389;28;20264;-60
2023/04/24 00:05:13;;;;;;;3.90;1.50;;;;;;;19.45;57.85;99259.75;5044161;28;20592;-62
2023/04/24 00:07:39;;;;;;;7.53;1.40;;;;;;;19.43;57.98;99263.06;5033967;28;20600;-61
2023/04/24 00:10:06;;;;;;;5.07;1.50;;;;;;;19.41;58.06;99254.03;5035559;28;20487;-61
2023/04/24 00:12:31;;;;;;;2.93;1.30;;;;;;;19.40;58.20;99261.00;5070755;28;20765;-62
2023/04/24 00:14:56;;;;;;;5.70;1.50;;;;;;;19.39;58.22;99253.66;5051019;28;20429;-61
2023/04/24 00:17:22;;;;;;;6.20;1.73;;;;;;;19.38;58.28;99259.78;5074693;28;20554;-61
2023/04/24 00:19:48;;;;;;;3.30;1.47;;;;;;;19.36;58.28;99253.66;5050771;28;20171;-61
2023/04/24 00:22:14;;;;;;;6.03;1.27;;;;;;;19.35;58.56;99254.88;5058731;28;20190;-61
2023/04/24 00:24:40;;;;;;;4.33;1.57;;;;;;;19.33;58.31;99241.00;5092425;28;20739;-62
2023/04/24 00:27:05;;;;;;;6.40;1.63;;;;;;;19.32;58.83;99244.25;5080235;28;20517;-62
2023/04/24 00:29:30;;;;;;;4.23;1.40;;;;;;;19.31;58.96;99239.78;5087362;28;20182;-61
2023/04/24 00:31:56;;;;;;;8.10;1.50;;;;;;;19.31;58.71;99242.63;5073093;28;20189;-61
2023/04/24 00:34:21;;;;;;;8.53;2.20;;;;;;;19.29;59.09;99243.03;5082471;28;20748;-61
2023/04/24 00:36:48;;;;;;;5.73;1.47;;;;;;;19.29;58.99;99250.78;5074161;28;20681;-61
2023/04/24 00:39:15;;;;;;;5.33;1.40;;;;;;;19.28;59.00;99252.88;5070704;28;20277;-62
2023/04/24 00:41:40;;;;;;;5.00;1.10;;;;;;;19.28;59.32;99252.88;5080702;28;20482;-61
2023/04/24 00:44:07;;;;;;;5.80;1.73;;;;;;;19.27;58.92;99251.19;5057990;28;20905;-61
2023/04/24 00:46:32;;;;;;;3.37;1.10;;;;;;;19.25;59.27;99245.09;5054804;28;20822;-61
2023/04/24 00:48:58;;;;;;;5.83;2.57;;;;;;;19.24;59.18;99254.06;5070706;28;20421;-61
2023/04/24 00:51:24;;;;;;;4.77;1.83;;;;;;;19.24;59.46;99254.91;5055490;28;20179;-61
2023/04/24 00:53:50;;;;;;;11.90;1.67;;;;;;;19.23;59.56;99259.00;5088602;28;20431;-61
2023/04/24 00:56:16;;;;;;;4.00;1.43;;;;;;;19.22;59.50;99257.34;5085068;28;20245;-61
2023/04/24 00:58:42;;;;;;;3.40;1.07;;;;;;;19.22;59.36;99257.34;5059771;28;20436;-61
2023/04/24 01:01:07;;;;;;;5.60;1.10;;;;;;;19.23;59.12;99252.44;5070842;28;20609;-62
2023/04/24 01:03:33;;;;;;;7.60;2.07;;;;;;;19.23;59.33;99259.00;5061352;28;20181;-61
2023/04/24 01:05:58;;;;;;;3.70;1.63;;;;;;;19.21;59.36;99255.69;5075529;28;20174;-61
2023/04/24 01:08:24;;;;;;;3.10;1.40;;;;;;;19.22;59.30;99265.94;5071369;28;20195;-61
2023/04/24 01:10:51;;;;;;;4.80;1.43;;;;;;;19.20;59.46;99256.91;5071815;28;20277;-61
2023/04/24 01:13:18;;;;;;;4.93;1.30;;;;;;;19.20;59.46;99254.06;5070212;28;20410;-62
2023/04/24 01:15:44;;;;;;;3.30;1.20;;;;;;;19.19;59.25;99261.00;5072332;28;20713;-61
2023/04/24 01:18:09;;;;;;;6.97;1.70;;;;;;;19.19;59.53;99255.28;5070245;28;20479;-61
2023/04/24 01:20:36;;;;;;;4.63;1.73;;;;;;;19.19;59.58;99257.31;5053202;28;20261;-60
2023/04/24 01:23:02;;;;;;;6.00;1.57;;;;;;;19.19;59.45;99263.88;5050573;28;20159;-61
2023/04/24 01:25:28;;;;;;;7.93;1.63;;;;;;;19.18;59.57;99259.38;5067788;28;20864;-62
2023/04/24 01:27:53;;;;;;;3.87;1.27;;;;;;;19.18;59.55;99255.69;5055644;28;20416;-62
2023/04/24 01:30:19;;;;;;;3.37;1.50;;;;;;;19.17;59.83;99260.59;5069799;28;20185;-62
2023/04/24 01:32:44;;;;;;;3.60;1.20;;;;;;;19.17;59.61;99262.66;5068288;28;20211;-61
2023/04/24 01:35:10;;;;;;;3.30;1.17;;;;;;;19.17;59.92;99266.31;5035713;28;20202;-61
2023/04/24 01:37:37;;;;;;;4.60;1.70;;;;;;;19.15;59.90;99251.59;5072487;28;20191;-61
2023/04/24 01:40:04;;;;;;;4.87;1.20;;;;;;;19.15;60.18;99251.59;5070982;28;20159;-61
2023/04/24 01:42:30;;;;;;;7.23;1.43;;;;;;;19.15;59.81;99254.47;5070680;28;20452;-61
2023/04/24 01:44:55;;;;;;;3.40;1.60;;;;;;;19.14;59.76;99238.53;5090934;28;20412;-61
2023/04/24 01:47:21;;;;;;;4.27;1.30;;;;;;;19.14;59.82;99238.53;5076377;28;20174;-62
2023/04/24 01:49:46;;;;;;;2.33;0.90;;;;;;;19.13;59.73;99236.09;5082130;28;20185;-61
2023/04/24 01:52:12;;;;;;;3.27;1.17;;;;;;;19.13;60.23;99244.66;5038933;28;20584;-62
2023/04/24 01:54:37;;;;;;;5.87;1.43;;;;;;;19.12;60.18;99243.03;5079353;28;20228;-60
2023/04/24 01:57:02;;;;;;;3.63;1.67;;;;;;;19.13;60.15;99238.94;5073540;28;20940;-61
2023/04/24 01:59:28;;;;;;;5.63;1.47;;;;;;;19.12;60.04;99243.84;5081670;28;20178;-61
2023/04/24 02:01:54;;;;;;;6.37;1.60;;;;;;;19.13;60.23;99247.53;5094083;28;20174;-61
2023/04/24 02:04:19;;;;;;;3.70;1.30;;;;;;;19.12;60.00;99240.19;5077293;28;21012;-61
2023/04/24 02:06:45;;;;;;;3.57;1.20;;;;;;;19.11;60.15;99239.34;5091819;28;20643;-61
2023/04/24 02:09:10;;;;;;;3.20;1.50;;;;;;;19.11;60.12;99242.22;5094126;28;20155;-61
2023/04/24 02:11:36;;;;;;;2.77;1.20;;;;;;;19.11;60.23;99239.34;5062681;28;20214;-60
2023/04/24 02:14:02;;;;;;;4.00;1.50;;;;;;;19.11;60.28;99241.41;5073749;28;20186;-61
2023/04/24 02:16:31;;;;;;;7.20;1.43;;;;;;;19.11;60.15;99235.69;5074612;28;20202;-61
2023/04/24 02:18:57;;;;;;;4.70;1.23;;;;;;;19.11;60.29;99238.56;5076856;28;20206;-60
2023/04/24 02:21:22;;;;;;;3.00;1.20;;;;;;;19.09;60.38;99236.09;5093649;28;20434;-61
2023/04/24 02:23:48;;;;;;;3.83;1.40;;;;;;;19.09;60.49;99243.84;5081010;28;20229;-62
2023/04/24 02:26:13;;;;;;;4.17;1.30;;;;;;;19.10;59.95;99242.63;5073409;28;20179;-61
2023/04/24 02:28:39;;;;;;;6.63;1.60;;;;;;;19.09;60.25;99236.09;5075477;28;20194;-60
2023/04/24 02:31:05;;;;;;;7.40;1.93;;;;;;;19.09;60.16;99247.53;5075408;28;20210;-61
2023/04/24 02:33:31;;;;;;;2.13;1.00;;;;;;;19.08;60.38;99240.19;5075655;28;20171;-60
2023/04/24 02:35:56;;;;;;;2.70;1.43;;;;;;;19.08;60.18;99243.06;5073666;28;20471;-61
2023/04/24 02:38:22;;;;;;;6.27;1.40;;;;;;;19.08;60.12;99251.63;5089420;28;20195;-61
2023/04/24 02:40:47;;;;;;;4.20;1.40;;;;;;;19.08;60.16;99251.63;5093913;28;20171;-61
2023/04/24 02:43:13;;;;;;;3.77;1.40;;;;;;;19.08;60.37;99265.09;5089879;28;20210;-61
2023/04/24 02:45:38;;;;;;;4.63;1.40;;;;;;;19.08;60.30;99276.53;5093518;28;20691;-61
2023/04/24 02:48:04;;;;;;;3.20;1.10;;;;;;;19.08;60.42;99299.44;5093393;28;20185;-62
2023/04/24 02:50:29;;;;;;;3.03;1.20;;;;;;;19.08;60.51;99337.44;5093523;28;20175;-60
2023/04/24 02:52:54;;;;;;;2.83;0.93;;;;;;;19.07;60.55;99324.34;5085059;28;20182;-62
2023/04/24 02:55:20;;;;;;;3.17;1.23;;;;;;;19.07;60.39;99330.06;5074176;28;20174;-61
2023/04/24 02:57:45;;;;;;;2.90;1.37;;;;;;;19.06;60.34;99325.59;5079649;28;20187;-62
2023/04/24 03:00:11;;;;;;;3.40;1.50;;;;;;;19.07;60.33;99335.78;5086656;28;20186;-61
2023/04/24 03:02:37;;;;;;;3.83;1.00;;;;;;;19.06;60.28;99337.03;5093485;28;20171;-60
2023/04/24 03:05:03;;;;;;;5.00;1.23;;;;;;;19.06;60.11;99331.31;5052343;28;20449;-61
2023/04/24 03:07:28;;;;;;;3.07;1.00;;;;;;;19.07;59.94;99332.94;5053568;28;20207;-60
2023/04/24 03:09:54;;;;;;;2.77;0.80;;;;;;;19.06;60.29;99337.03;5073763;28;20424;-60
2023/04/24 03:12:19;;;;;;;2.50;1.13;;;;;;;19.06;60.11;99331.31;5072596;28;20179;-61
2023/04/24 03:14:45;;;;;;;3.53;1.33;;;;;;;19.07;59.91;99330.06;5072113;28;20574;-61
2023/04/24 03:17:10;;;;;;;3.20;1.30;;;;;;;19.06;60.21;99334.16;5073123;28;21018;-61
2023/04/24 03:19:36;;;;;;;3.07;1.33;;;;;;;19.07;60.05;99335.78;5052180;28;20187;-60
2023/04/24 03:22:02;;;;;;;3.10;1.00;;;;;;;19.07;60.18;99330.06;5053059;28;20160;-60
2023/04/24 03:24:28;;;;;;;3.80;1.10;;;;;;;19.07;60.05;99330.06;5064668;28;20196;-60
2023/04/24 03:26:53;;;;;;;3.40;1.27;;;;;;;19.07;60.00;99335.00;5066811;28;20425;-61
2023/04/24 03:29:19;;;;;;;3.97;1.23;;;;;;;19.07;59.91;99338.66;5073297;28;20173;-61
2023/04/24 03:31:45;;;;;;;2.70;1.23;;;;;;;19.06;60.09;99334.16;5090650;28;20796;-61
2023/04/24 03:34:10;;;;;;;2.77;1.20;;;;;;;19.05;60.10;99335.41;5093086;28;20173;-62
2023/04/24 03:36:36;;;;;;;2.73;1.10;;;;;;;19.07;60.03;99340.72;5081367;28;20199;-61
2023/04/24 03:39:01;;;;;;;3.20;1.17;;;;;;;19.06;60.19;99348.47;5087354;28;20178;-60
2023/04/24 03:41:27;;;;;;;4.30;1.57;;;;;;;19.05;60.10;99343.97;5091859;28;20147;-61
2023/04/24 03:43:52;;;;;;;2.90;1.00;;;;;;;19.04;60.14;99359.50;5078784;28;20603;-61
2023/04/24 03:46:18;;;;;;;4.77;1.07;;;;;;;19.04;60.53;99365.22;5071506;28;20155;-61
2023/04/24 03:48:43;;;;;;;2.40;1.00;;;;;;;19.04;60.27;99365.22;5072552;28;20540;-60
2023/04/24 03:51:11;;;;;;;3.30;1.07;;;;;;;19.03;60.20;99363.59;5072155;28;20171;-60
2023/04/24 03:53:37;;;;;;;2.77;1.30;;;;;;;19.04;60.29;99373.00;5072834;28;20269;-61
2023/04/24 03:56:02;;;;;;;2.70;1.20;;;;;;;19.04;60.18;99375.84;5072132;28;20463;-61
2023/04/24 03:58:28;;;;;;;4.40;1.47;;;;;;;19.03;60.34;99374.22;5064471;28;20214;-61
2023/04/24 04:00:53;;;;;;;2.10;1.10;;;;;;;19.02;60.25;99384.81;5092224;28;20498;-60
2023/04/24 04:03:19;;;;;;;4.73;1.10;;;;;;;19.02;60.19;99381.16;5090368;28;20171;-61
2023/04/24 04:05:44;;;;;;;3.27;1.10;;;;;;;19.02;60.18;99387.69;5059913;28;20218;-60
2023/04/24 04:08:10;;;;;;;2.53;1.20;;;;;;;19.01;60.57;99386.06;5071045;28;20191;-61
2023/04/24 04:10:35;;;;;;;2.67;0.90;;;;;;;19.00;60.32;99393.00;5074292;28;20231;-60
2023/04/24 04:13:01;;;;;;;3.57;1.33;;;;;;;18.99;60.44;99394.25;5072108;28;20611;-60
2023/04/24 04:15:26;;;;;;;2.83;1.17;;;;;;;18.99;60.63;99399.13;5073812;28;20186;-60
2023/04/24 04:17:52;;;;;;;3.10;1.63;;;;;;;18.98;60.32;99403.22;5070882;28;20187;-60
2023/04/24 04:20:17;;;;;;;2.87;0.90;;;;;;;18.99;60.42;99404.84;5052470;28;20175;-60
2023/04/24 04:22:43;;;;;;;2.67;0.90;;;;;;;19.00;60.21;99407.31;5088858;28;20174;-61
2023/04/24 04:25:08;;;;;;;2.13;1.03;;;;;;;19.00;60.18;99418.75;5050576;28;20631;-60
2023/04/24 04:27:35;;;;;;;2.50;1.20;;;;;;;19.00;60.23;99420.78;5071987;28;20178;-60
2023/04/24 04:30:04;;;;;;;3.07;1.20;;;;;;;19.01;60.13;99426.09;5067087;28;20175;-61
2023/04/24 04:32:35;;;;;;;3.63;1.30;;;;;;;19.00;60.39;99420.78;5037578;28;20437;-60
2023/04/24 04:35:02;;;;;;;2.93;1.00;;;;;;;19.00;60.43;99420.78;5052009;28;20407;-62
2023/04/24 04:37:33;;;;;;;3.00;1.20;;;;;;;18.99;60.28;99425.72;5050952;28;20527;-61
2023/04/24 04:39:58;;;;;;;1.70;0.77;;;;;;;18.99;60.29;99425.72;5033706;28;20426;-61
2023/04/24 04:42:24;;;;;;;2.40;0.93;;;;;;;18.99;60.40;99428.56;5071914;28;20509;-61
2023/04/24 04:44:50;;;;;;;2.30;1.23;;;;;;;19.00;60.23;99435.09;5053228;28;20606;-60
2023/04/24 04:47:17;;;;;;;2.93;1.20;;;;;;;18.99;60.45;99436.31;5077464;28;20425;-61
2023/04/24 04:49:43;;;;;;;3.07;1.00;;;;;;;18.99;60.11;99430.59;5091348;28;20235;-61
2023/04/24 04:52:09;;;;;;;8.00;2.60;;;;;;;18.97;60.33;99433.84;5076468;28;20422;-61
2023/04/24 04:54:34;;;;;;;3.20;0.93;;;;;;;18.98;60.34;99440.41;5072006;28;20245;-61
2023/04/24 04:57:00;;;;;;;2.43;1.20;;;;;;;18.99;60.18;99448.59;5069533;28;20677;-61
2023/04/24 04:59:26;;;;;;;3.00;1.17;;;;;;;18.99;60.13;99448.59;5037893;28;20263;-61
2023/04/24 05:01:52;;;;;;;2.30;0.90;;;;;;;18.98;60.14;99446.97;5044121;28;20765;-62
2023/04/24 05:04:17;;;;;;;2.70;1.10;;;;;;;18.96;60.36;99446.53;5071945;28;20436;-62
2023/04/24 05:06:43;;;;;;;3.00;1.20;;;;;;;18.94;60.34;99457.56;5073298;28;20181;-63
2023/04/24 05:09:08;;;;;;;2.73;1.10;;;;;;;18.96;60.24;99457.97;5076930;28;20174;-62
2023/04/24 05:11:34;;;;;;;3.67;1.17;;;;;;;18.97;60.13;99456.75;5051887;28;20234;-62
2023/04/24 05:13:59;;;;;;;3.43;1.10;;;;;;;18.97;60.27;99461.66;5072522;28;20232;-62
2023/04/24 05:16:25;;;;;;;2.50;1.23;;;;;;;18.96;60.51;99463.69;5070719;28;20228;-63
2023/04/24 05:18:50;;;;;;;3.30;0.83;;;;;;;19.00;60.66;99475.97;5068215;28;20186;-61
2023/04/24 05:21:16;;;;;;;2.70;0.93;;;;;;;18.95;59.64;99473.50;5076720;28;20199;-61
2023/04/24 05:23:41;;;;;;;5.40;1.70;;;;;;;19.00;59.86;99467.38;5050656;28;20183;-62
2023/04/24 05:26:07;;;;;;;3.90;2.03;;;;;;;19.16;60.35;99478.47;5057917;28;20174;-62
2023/04/24 05:28:32;;;;;;;7.87;2.20;;;;;;;19.38;60.03;99475.28;5067192;28;20514;-62
2023/04/24 05:30:59;;;;;;;8.60;2.60;;;;;;;19.36;58.77;99482.63;5066467;28;20179;-62
2023/04/24 05:33:24;;;;;;;8.37;1.93;;;;;;;19.38;59.16;99492.44;5067517;28;20178;-62
2023/04/24 05:35:50;;;;;;;4.13;1.37;;;;;;;19.44;58.40;99495.72;5070584;28;20433;-62
2023/04/24 05:38:19;;;;;;;5.53;1.50;;;;;;;19.42;57.64;99498.97;5067909;28;20713;-61
2023/04/24 05:40:45;;;;;;;9.73;1.90;;;;;;;19.53;58.48;99496.16;5052452;28;20194;-62
2023/04/24 05:43:10;;;;;;;2.67;1.40;;;;;;;19.48;57.70;99505.97;5055367;28;20920;-61
2023/04/24 05:45:36;;;;;;;3.77;1.33;;;;;;;19.57;57.99;99514.16;5066665;28;20163;-62
2023/04/24 05:48:02;;;;;;;6.07;1.60;;;;;;;19.52;56.88;99512.50;5050746;28;20175;-63
2023/04/24 05:50:27;;;;;;;4.23;1.30;;;;;;;19.49;56.96;99516.19;5048776;28;20179;-62
2023/04/24 05:52:53;;;;;;;3.40;1.57;;;;;;;19.46;57.07;99514.13;5070702;28;20536;-63
2023/04/24 05:55:19;;;;;;;2.80;1.30;;;;;;;19.48;57.17;99522.31;5066547;28;20167;-63
2023/04/24 05:57:44;;;;;;;10.13;3.13;;;;;;;19.48;59.34;99520.28;5067070;28;20207;-62
2023/04/24 06:00:11;;;;;;;6.60;2.10;;;;;;;19.52;59.35;99520.28;5068411;28;20627;-62
2023/04/24 06:02:38;;;;;;;5.00;1.40;;;;;;;19.54;58.54;99520.69;5067971;28;20216;-63
2023/04/24 06:05:04;;;;;;;13.40;1.60;;;;;;;19.56;58.05;99524.78;5067597;28;21191;-62
2023/04/24 06:07:30;;;;;;;7.30;1.30;;;;;;;19.56;57.14;99526.84;5069428;28;20449;-62
2023/04/24 06:09:56;;;;;;;3.20;1.00;;;;;;;19.52;58.25;99523.13;5076718;28;20488;-62
2023/04/24 06:12:22;;;;;;;9.30;1.87;;;;;;;19.46;58.46;99542.75;5067869;28;20406;-61
2023/04/24 06:14:47;;;;;;;6.17;1.50;;;;;;;19.38;58.88;99535.38;5068935;28;20293;-60
2023/04/24 06:17:13;;;;;;;13.53;2.80;;;;;;;19.43;58.46;99546.44;5057446;28;20195;-61
2023/04/24 06:19:38;;;;;;;4.23;1.50;;;;;;;19.40;58.70;99543.53;5069108;28;20262;-60
2023/04/24 06:22:04;;;;;;;5.13;1.77;;;;;;;19.37;58.25;99550.91;5050769;28;20190;-61
2023/04/24 06:24:29;;;;;;;9.83;1.47;;;;;;;19.33;58.31;99547.22;5069191;28;20593;-60
2023/04/24 06:26:56;;;;;;;4.50;1.40;;;;;;;19.31;58.42;99554.59;5051715;28;20179;-61
2023/04/24 06:29:22;;;;;;;3.90;1.43;;;;;;;19.29;58.38;99557.84;5069841;28;20494;-61
2023/04/24 06:31:47;;;;;;;5.00;1.23;;;;;;;19.31;58.37;99529.63;5069787;28;20493;-61
2023/04/24 06:34:12;;;;;;;6.23;1.30;;;;;;;19.31;58.39;99561.13;5059104;28;20541;-60
2023/04/24 06:36:38;;;;;;;3.23;1.20;;;;;;;19.30;58.66;99565.19;5051702;28;20671;-62
2023/04/24 06:39:03;;;;;;;5.33;1.53;;;;;;;19.30;58.74;99561.50;5051717;28;20612;-60
2023/04/24 06:41:29;;;;;;;7.50;2.03;;;;;;;19.30;58.97;99567.22;5034957;28;20534;-60
2023/04/24 06:43:55;;;;;;;5.00;1.40;;;;;;;19.30;58.77;99578.69;5075902;28;20506;-61
2023/04/24 06:46:23;;;;;;;6.47;1.53;;;;;;;19.33;59.05;99572.16;5050513;28;20176;-60
2023/04/24 06:48:49;;;;;;;4.33;1.53;;;;;;;19.30;58.93;99585.25;5052470;28;20168;-61
2023/04/24 06:51:14;;;;;;;5.53;1.50;;;;;;;19.30;59.06;99587.25;5068191;28;20467;-60
2023/04/24 06:53:40;;;;;;;7.73;1.80;;;;;;;19.29;59.13;99582.78;5074339;28;20540;-60
2023/04/24 06:56:05;;;;;;;4.33;1.37;;;;;;;19.28;59.09;99581.97;5072205;28;20557;-60
2023/04/24 06:58:30;;;;;;;7.93;1.70;;;;;;;19.28;59.39;99581.13;5081857;28;20653;-61
2023/04/24 07:00:56;;;;;;;3.80;1.50;;;;;;;19.29;59.24;99583.59;5091821;28;20166;-60
2023/04/24 07:03:21;;;;;;;4.00;1.40;;;;;;;19.29;59.47;99588.50;5073049;28;20183;-61
2023/04/24 07:05:47;;;;;;;4.43;1.50;;;;;;;19.28;59.34;99592.59;5071665;28;20817;-60
2023/04/24 07:08:13;;;;;;;2.73;1.30;;;;;;;19.26;59.64;99587.25;5073591;28;20255;-60
2023/04/24 07:10:39;;;;;;;3.87;1.73;;;;;;;19.25;59.70;99588.50;5091337;28;20464;-61
2023/04/24 07:13:04;;;;;;;4.77;1.70;;;;;;;19.26;59.71;99595.03;5059659;28;20193;-60
2023/04/24 07:15:30;;;;;;;3.77;1.40;;;;;;;19.27;59.65;99588.91;5071835;28;20637;-61
2023/04/24 07:17:55;;;;;;;2.70;1.40;;;;;;;19.26;59.70;99590.13;5055425;28;20187;-62
2023/04/24 07:20:21;;;;;;;5.07;1.47;;;;;;;19.27;59.84;99608.13;5057556;28;20589;-61
2023/04/24 07:22:48;;;;;;;4.63;1.40;;;;;;;19.25;59.78;99594.22;5091553;28;20159;-61
2023/04/24 07:25:13;;;;;;;3.30;1.50;;;;;;;19.26;59.77;99606.50;5090876;28;20220;-60
2023/04/24 07:27:38;;;;;;;4.57;1.50;;;;;;;19.27;59.67;99602.41;5091040;28;20515;-60
2023/04/24 07:30:04;;;;;;;3.90;1.30;;;;;;;19.25;59.82;99599.09;5085925;28;20178;-64
2023/04/24 07:32:30;;;;;;;3.50;1.90;;;;;;;19.26;59.80;99615.06;5079075;28;20183;-60
2023/04/24 07:34:55;;;;;;;2.70;1.20;;;;;;;19.25;59.91;99617.09;5054900;28;20452;-61
2023/04/24 07:37:21;;;;;;;9.00;1.60;;;;;;;19.23;59.96;99607.28;5070613;28;20213;-61
2023/04/24 07:39:46;;;;;;;2.73;1.40;;;;;;;19.21;60.01;99630.53;5076133;28;20185;-61
2023/04/24 07:42:12;;;;;;;3.13;1.50;;;;;;;19.20;60.12;99625.22;5090351;28;20170;-62
2023/04/24 07:44:37;;;;;;;3.17;1.40;;;;;;;19.23;59.86;99633.88;5087465;28;20616;-61
2023/04/24 07:47:03;;;;;;;3.70;1.23;;;;;;;19.20;59.88;99626.03;5091586;28;20521;-61
2023/04/24 07:49:28;;;;;;;2.00;1.20;;;;;;;19.21;59.94;99630.53;5091478;28;20519;-61
2023/04/24 07:51:53;;;;;;;4.07;1.23;;;;;;;19.21;60.02;99642.00;5060539;28;20175;-61
2023/04/24 07:54:19;;;;;;;3.70;1.20;;;;;;;19.21;60.06;99647.72;5073282;28;20202;-61
2023/04/24 07:56:45;;;;;;;3.60;1.63;;;;;;;19.21;59.81;99647.72;5053844;28;20211;-60
2023/04/24 07:59:10;;;;;;;2.90;1.00;;;;;;;19.20;59.98;99650.97;5055065;28;20171;-62
2023/04/24 08:01:36;;;;;;;4.73;1.37;;;;;;;19.20;60.36;99650.97;5072307;28;20206;-62
2023/04/24 08:04:01;;;;;;;3.67;1.70;;;;;;;19.19;60.21;99655.88;5052790;28;20256;-61
2023/04/24 08:06:30;;;;;;;2.90;1.30;;;;;;;19.18;60.02;99657.13;5054599;28;20865;-62
2023/04/24 08:08:59;;;;;;;2.33;0.97;;;;;;;19.20;60.07;99660.38;5070466;28;20171;-61
2023/04/24 08:11:25;;;;;;;4.07;1.23;;;;;;;19.18;60.24;99657.13;5058014;28;20460;-63
2023/04/24 08:13:50;;;;;;;2.40;1.07;;;;;;;19.18;60.21;99668.56;5072941;28;21010;-62
2023/04/24 08:16:16;;;;;;;3.90;1.50;;;;;;;19.17;60.16;99678.34;5070154;28;20277;-62
2023/04/24 08:18:41;;;;;;;3.17;1.20;;;;;;;19.18;60.16;99682.88;5054138;28;20206;-62
2023/04/24 08:21:07;;;;;;;2.87;1.20;;;;;;;19.16;60.08;99668.13;5069861;28;20155;-63
2023/04/24 08:23:32;;;;;;;5.13;1.20;;;;;;;19.16;60.19;99676.72;5069132;28;20575;-63
2023/04/24 08:25:58;;;;;;;3.07;1.57;;;;;;;19.16;60.18;99681.63;5086695;28;20171;-62
2023/04/24 08:28:23;;;;;;;3.20;1.40;;;;;;;19.16;59.97;99681.63;5071664;28;20159;-63
2023/04/24 08:30:54;;;;;;;3.17;1.10;;;;;;;19.18;60.04;99696.34;5067561;28;20182;-61
2023/04/24 08:33:20;;;;;;;3.87;1.20;;;;;;;19.17;60.14;99692.66;5035187;28;20187;-61
2023/04/24 08:35:45;;;;;;;3.30;1.30;;;;;;;19.19;60.30;99695.94;5040413;28;20530;-62
2023/04/24 08:38:10;;;;;;;2.50;1.00;;;;;;;19.20;60.09;99699.63;5070383;28;20206;-62
2023/04/24 08:40:36;;;;;;;2.70;1.03;;;;;;;19.23;59.92;99701.72;5072810;28;20155;-61
2023/04/24 08:43:01;;;;;;;2.23;1.03;;;;;;;19.24;59.93;99711.94;5064500;28;20244;-61
2023/04/24 08:45:27;;;;;;;2.33;1.13;;;;;;;19.21;59.97;99713.53;5072174;28;20557;-62
2023/04/24 08:47:54;;;;;;;3.13;1.27;;;;;;;19.20;59.95;99703.31;5084644;28;20182;-62
2023/04/24 08:50:20;;;;;;;3.10;1.00;;;;;;;19.23;59.85;99722.59;5089681;28;20532;-62
2023/04/24 08:52:45;;;;;;;2.23;1.20;;;;;;;19.21;59.88;99710.66;5060832;28;20425;-63
2023/04/24 08:55:11;;;;;;;2.30;1.13;;;;;;;19.22;59.81;99718.06;5052260;28;20191;-61
2023/04/24 08:57:38;;;;;;;3.20;1.80;;;;;;;19.21;60.08;99718.44;5051312;28;20203;-63
2023/04/24 09:00:04;;;;;;;5.30;1.27;;;;;;;19.23;59.89;99718.88;5055885;28;20193;-61
2023/04/24 09:02:30;;;;;;;3.40;1.13;;;;;;;19.19;60.05;99715.97;5078892;28;20520;-62
2023/04/24 09:04:56;;;;;;;2.40;1.10;;;;;;;19.19;60.07;99727.44;5072225;28;20424;-62
2023/04/24 09:07:22;;;;;;;4.03;1.40;;;;;;;19.19;59.94;99724.56;5084745;28;20444;-62
2023/04/24 09:09:47;;;;;;;4.33;1.40;;;;;;;19.17;60.09;99729.06;5071717;28;20478;-62
2023/04/24 09:12:13;;;;;;;1.93;1.07;;;;;;;19.18;60.27;99713.50;5082205;28;20540;-61
2023/04/24 09:14:42;;;;;;;2.80;1.37;;;;;;;19.16;60.25;99725.34;5051793;28;20259;-62
2023/04/24 09:17:07;;;;;;;2.43;1.20;;;;;;;19.17;60.28;99734.78;5069750;28;20190;-62
2023/04/24 09:19:33;;;;;;;2.30;1.03;;;;;;;19.15;60.17;99726.56;5071628;28;20425;-62
2023/04/24 09:21:58;;;;;;;2.37;1.20;;;;;;;19.15;60.28;99732.31;5068823;28;20159;-61
2023/04/24 09:24:24;;;;;;;5.10;1.50;;;;;;;19.16;60.14;99733.94;5076635;28;20236;-61
2023/04/24 09:26:57;;;;;;;2.40;1.10;;;;;;;19.15;60.28;99740.88;5089751;28;20633;-63
2023/04/24 09:29:22;;;;;;;1.80;1.00;;;;;;;19.13;60.25;99746.19;5069609;28;20528;-62
2023/04/24 09:31:48;;;;;;;4.83;0.90;;;;;;;19.14;60.20;99741.28;5071805;28;20421;-61
2023/04/24 09:34:13;;;;;;;2.40;1.10;;;;;;;19.14;60.36;99747.84;5071823;28;20182;-62
2023/04/24 09:36:40;;;;;;;2.67;1.30;;;;;;;19.13;60.41;99751.09;5073527;28;20198;-61
2023/04/24 09:39:10;;;;;;;2.20;1.10;;;;;;;19.13;60.61;99757.66;5052283;28;20171;-61
2023/04/24 09:41:52;;;;;;;2.20;1.40;;;;;;;19.14;60.29;99753.56;5037631;28;20575;-62
2023/04/24 09:44:22;;;;;;;2.70;1.07;;;;;;;19.15;60.31;99760.91;5052152;28;20464;-61
2023/04/24 09:46:54;;;;;;;2.03;1.13;;;;;;;19.15;60.38;99762.94;5052092;28;20409;-62
2023/04/24 09:49:27;;;;;;;1.80;0.90;;;;;;;19.15;60.18;99758.06;5069536;28;20447;-61
2023/04/24 09:52:01;;;;;;;3.13;1.10;;;;;;;19.15;60.26;99766.63;5071278;28;20557;-61
2023/04/24 09:54:27;;;;;;;4.77;1.30;;;;;;;19.14;60.38;99767.88;5036227;28;20481;-61
2023/04/24 09:56:52;;;;;;;2.10;1.07;;;;;;;19.16;60.38;99764.63;5069357;28;20461;-62
2023/04/24 09:59:19;;;;;;;2.07;1.20;;;;;;;19.13;60.36;99774.81;5053407;28;20236;-62
2023/04/24 10:01:44;;;;;;;6.13;1.30;;;;;;;19.12;60.45;99766.63;5068981;28;20933;-61
2023/04/24 10:04:21;;;;;;;2.50;1.10;;;;;;;19.11;60.46;99765.78;5036327;28;20444;-61
2023/04/24 10:06:48;;;;;;;3.03;1.20;;;;;;;19.11;60.47;99770.72;5051902;28;20175;-61
2023/04/24 10:09:15;;;;;;;2.30;1.13;;;;;;;19.11;60.45;99782.16;5044981;28;20528;-61
2023/04/24 10:11:47;;;;;;;2.43;1.40;;;;;;;19.11;60.45;99779.28;5038211;28;20461;-62
2023/04/24 10:14:14;;;;;;;2.10;1.10;;;;;;;19.12;60.39;99778.88;5071958;28;20402;-61
2023/04/24 10:16:40;;;;;;;3.70;0.93;;;;;;;19.12;60.64;99773.16;5090749;28;20416;-61
2023/04/24 10:19:05;;;;;;;2.63;1.00;;;;;;;19.13;60.53;99773.97;5058446;28;20428;-61
2023/04/24 10:21:31;;;;;;;1.90;1.10;;;;;;;19.13;60.44;99769.09;5088575;28;20432;-62
2023/04/24 10:23:56;;;;;;;2.93;1.23;;;;;;;19.14;60.46;99779.31;5058878;28;20197;-61
2023/04/24 10:26:22;;;;;;;2.60;1.03;;;;;;;19.14;60.53;99779.31;5054917;28;20198;-62
2023/04/24 10:28:47;;;;;;;2.27;1.10;;;;;;;19.15;60.39;99777.25;5056829;28;20626;-62
2023/04/24 10:31:13;;;;;;;2.77;1.10;;;;;;;19.14;60.30;99770.72;5072734;28;20578;-62
2023/04/24 10:33:42;;;;;;;3.03;1.33;;;;;;;19.13;59.89;99776.84;5072761;28;20861;-61
2023/04/24 10:36:09;;;;;;;1.90;0.90;;;;;;;19.14;60.57;99781.34;5039703;28;20422;-61
2023/04/24 10:38:35;;;;;;;3.93;1.30;;;;;;;19.13;60.40;99791.97;5051277;28;20625;-62
2023/04/24 10:41:15;;;;;;;2.67;0.90;;;;;;;19.12;60.52;99787.44;5069649;28;20483;-62
2023/04/24 10:43:41;;;;;;;2.00;1.00;;;;;;;19.10;60.48;99789.91;5068348;28;20174;-61
2023/04/24 10:46:08;;;;;;;3.60;1.20;;;;;;;19.11;60.24;99785.81;5053095;28;20956;-61
2023/04/24 10:48:33;;;;;;;3.00;1.20;;;;;;;19.11;60.54;99788.69;5073646;28;20599;-62
2023/04/24 10:50:59;;;;;;;2.33;1.00;;;;;;;19.12;60.41;99796.03;5072465;28;20417;-60
2023/04/24 10:53:28;;;;;;;1.50;0.80;;;;;;;19.11;60.34;99800.13;5072840;28;20210;-61
2023/04/24 10:55:56;;;;;;;3.37;1.10;;;;;;;19.12;60.35;99809.53;5055961;28;20198;-61
2023/04/24 10:58:22;;;;;;;2.10;1.10;;;;;;;19.11;60.28;99805.03;5071969;28;20460;-62
2023/04/24 11:01:00;;;;;;;4.83;1.23;;;;;;;19.09;60.40;99807.47;5082429;28;20440;-61
2023/04/24 11:03:30;;;;;;;1.93;1.03;;;;;;;19.09;60.57;99808.28;5069837;28;20200;-62
2023/04/24 11:06:03;;;;;;;2.80;1.23;;;;;;;19.09;60.29;99814.00;5076273;28;20426;-62
2023/04/24 11:08:30;;;;;;;2.20;1.23;;;;;;;19.10;60.33;99809.09;5039474;28;20461;-61
2023/04/24 11:10:58;;;;;;;2.20;1.10;;;;;;;19.09;60.36;99807.47;5071927;28;20473;-61
2023/04/24 11:13:24;;;;;;;3.80;1.00;;;;;;;19.09;60.43;99816.88;5071759;28;20755;-62
2023/04/24 11:16:34;;;;;;;2.83;1.10;;;;;;;19.07;60.46;99822.16;5084390;28;20428;-61
2023/04/24 11:19:17;;;;;;;2.23;0.90;;;;;;;19.09;60.74;99824.63;5025178;28;20988;-61
2023/04/24 11:22:00;;;;;;;9.00;1.27;;;;;;;19.11;60.48;99833.66;5073786;28;20436;-63
2023/04/24 11:24:27;;;;;;;2.40;1.03;;;;;;;19.10;60.55;99832.81;5072419;28;20439;-61
2023/04/24 11:27:14;;;;;;;2.43;0.80;;;;;;;19.09;60.54;99842.63;5071861;28;21031;-62
2023/04/24 11:29:50;;;;;;;2.23;1.10;;;;;;;19.08;60.52;99841.00;5073002;28;20917;-61